createdAt,value
2023-03-26T00:03:07.752Z,705.55
2023-03-26T00:08:10.085Z,712.80
2023-03-26T00:13:11.928Z,713.88
2023-03-26T00:18:15.545Z,718.85
2023-03-26T00:23:17.642Z,708.20
2023-03-26T00:28:22.584Z,723.47
2023-03-26T00:33:24.780Z,715.35
2023-03-26T00:38:28.539Z,720.15
2023-03-26T00:43:32.913Z,727.33
2023-03-26T00:48:44.410Z,736.08
2023-03-26T00:53:49.053Z,720.92
2023-03-26T00:58:50.983Z,754.65
2023-03-26T01:04:07.405Z,758.00
2023-03-26T01:09:22.131Z,744.30
2023-03-26T01:14:25.989Z,748.10
2023-03-26T01:19:52.651Z,760.38
2023-03-26T01:24:56.493Z,755.67
2023-03-26T01:30:37.171Z,763.78
2023-03-26T01:35:45.884Z,769.42
2023-03-26T01:41:04.661Z,767.67
2023-03-26T01:46:10.008Z,757.35
2023-03-26T01:51:14.002Z,762.08
2023-03-26T01:56:41.541Z,772.35
2023-03-26T02:02:05.913Z,763.53
2023-03-26T02:07:38.066Z,763.38
2023-03-26T02:12:42.532Z,767.88
2023-03-26T02:17:44.426Z,774.30
2023-03-26T02:22:47.386Z,766.72
2023-03-26T02:27:53.319Z,769.13
2023-03-26T02:32:59.260Z,766.70
2023-03-26T02:38:06.676Z,771.30
2023-03-26T02:43:08.751Z,759.55
2023-03-26T02:48:11.831Z,769.20
2023-03-26T02:53:29.855Z,770.38
2023-03-26T02:59:01.968Z,777.85
2023-03-26T03:04:04.313Z,777.75
2023-03-26T03:09:11.772Z,779.63
2023-03-26T03:14:13.591Z,767.55
2023-03-26T03:19:16.689Z,770.83
2023-03-26T03:24:18.601Z,782.60
2023-03-26T03:29:23.724Z,763.28
2023-03-26T03:34:25.717Z,762.22
2023-03-26T03:39:27.549Z,758.55
2023-03-26T03:44:29.599Z,758.22
2023-03-26T03:49:31.807Z,750.88
2023-03-26T03:54:33.844Z,769.58
2023-03-26T04:00:00.200Z,759.45
2023-03-26T04:05:06.482Z,768.83
2023-03-26T04:10:15.298Z,761.92
2023-03-26T04:15:43.971Z,765.70
2023-03-26T04:20:49.331Z,763.90
2023-03-26T04:25:58.220Z,772.00
2023-03-26T04:36:19.687Z,767.17
2023-03-26T04:41:26.392Z,767.80
2023-03-26T04:46:37.137Z,763.70
2023-03-26T04:51:47.520Z,765.83
2023-03-26T04:57:18.483Z,767.00
2023-03-26T05:02:26.093Z,763.58
2023-03-26T05:07:30.328Z,761.28
2023-03-26T05:12:35.391Z,771.67
2023-03-26T05:17:41.902Z,761.83
2023-03-26T05:22:51.453Z,767.28
2023-03-26T05:28:01.733Z,761.17
2023-03-26T05:33:29.991Z,763.30
2023-03-26T05:38:39.967Z,757.80
2023-03-26T05:43:49.000Z,751.28
2023-03-26T05:48:55.291Z,743.38
2023-03-26T05:53:57.414Z,739.88
2023-03-26T05:59:18.130Z,728.70
2023-03-26T06:04:41.012Z,720.00
2023-03-26T06:10:25.981Z,720.67
2023-03-26T06:15:29.309Z,708.92
2023-03-26T06:20:36.149Z,692.35
2023-03-26T06:25:45.661Z,686.15
2023-03-26T06:31:00.725Z,686.05
2023-03-26T06:36:16.122Z,689.78
2023-03-26T06:41:18.457Z,665.10
2023-03-26T06:52:07.375Z,673.58
2023-03-26T06:57:26.382Z,700.97
2023-03-26T07:02:46.768Z,691.13
2023-03-26T07:08:07.395Z,701.90
2023-03-26T07:13:27.545Z,735.70
2023-03-26T07:18:54.398Z,758.40
2023-03-26T07:24:01.625Z,776.83
2023-03-26T07:29:41.690Z,769.97
2023-03-26T07:35:03.486Z,774.33
2023-03-26T07:40:37.840Z,778.47
2023-03-26T07:46:12.196Z,779.60
2023-03-26T07:51:22.837Z,726.65
2023-03-26T07:56:45.453Z,672.08
2023-03-26T08:02:32.528Z,758.35
2023-03-26T08:08:02.898Z,774.67
2023-03-26T08:13:10.277Z,677.35
2023-03-26T08:18:27.214Z,724.15
2023-03-26T08:23:38.234Z,757.78
2023-03-26T08:28:56.039Z,761.15
2023-03-26T08:33:57.942Z,761.55
2023-03-26T08:38:59.806Z,752.00
2023-03-26T08:44:24.564Z,760.38
2023-03-26T08:50:03.903Z,756.40
2023-03-26T08:55:27.131Z,762.28
2023-03-26T09:00:47.517Z,764.33
2023-03-26T09:06:09.381Z,769.85
2023-03-26T09:11:37.508Z,772.75
2023-03-26T09:17:01.278Z,769.42
2023-03-26T09:22:18.102Z,774.08
2023-03-26T09:27:31.768Z,769.92
2023-03-26T09:32:50.569Z,767.60
2023-03-26T09:37:57.473Z,765.92
2023-03-26T09:43:08.550Z,755.78
2023-03-26T09:48:38.261Z,748.08
2023-03-26T09:53:40.461Z,768.45
2023-03-26T09:59:08.566Z,755.42
2023-03-26T10:09:37.178Z,746.00
2023-03-26T10:15:01.029Z,772.58
2023-03-26T10:20:08.615Z,779.28
2023-03-26T10:25:31.592Z,780.35
2023-03-26T10:30:42.856Z,780.38
2023-03-26T10:36:08.160Z,780.53
2023-03-26T10:41:09.987Z,784.25
2023-03-26T10:46:36.481Z,614.25
2023-03-26T10:51:59.395Z,626.13
2023-03-26T10:57:30.495Z,790.65
2023-03-26T11:02:51.924Z,781.92
2023-03-26T11:08:35.679Z,787.78
2023-03-26T11:13:56.234Z,790.53
2023-03-26T11:19:33.310Z,782.22
2023-03-26T11:25:09.421Z,780.92
2023-03-26T11:30:41.551Z,789.33
2023-03-26T11:35:48.323Z,787.35
2023-03-26T11:40:54.340Z,785.03
2023-03-26T11:46:22.841Z,777.67
2023-03-26T11:51:33.100Z,775.10
2023-03-26T11:57:05.388Z,767.85
2023-03-26T12:02:12.143Z,730.45
2023-03-26T12:07:59.761Z,710.17
2023-03-26T12:13:20.601Z,702.72
2023-03-26T12:18:27.473Z,695.65
2023-03-26T12:23:38.771Z,686.30
2023-03-26T12:28:45.558Z,689.25
2023-03-26T12:34:07.912Z,682.57
2023-03-26T12:40:10.778Z,739.47
2023-03-26T12:44:59.976Z,730.55
2023-03-26T12:50:05.169Z,757.70
2023-03-26T12:55:21.906Z,763.20
2023-03-26T13:00:44.574Z,734.13
2023-03-26T13:06:24.622Z,757.28
2023-03-26T13:12:14.643Z,752.10
2023-03-26T13:17:52.346Z,750.88
2023-03-26T13:23:13.347Z,756.13
2023-03-26T13:28:38.896Z,759.40
2023-03-26T13:34:14.383Z,754.13
2023-03-26T13:39:29.957Z,750.20
2023-03-26T13:44:49.781Z,763.28
2023-03-26T13:49:58.861Z,758.53
2023-03-26T13:55:19.921Z,751.15
2023-03-26T14:00:36.517Z,748.95
2023-03-26T14:05:44.164Z,760.65
2023-03-26T14:16:20.784Z,763.80
2023-03-26T14:21:48.761Z,751.20
2023-03-26T14:27:03.852Z,763.75
2023-03-26T14:32:44.913Z,765.33
2023-03-26T14:38:18.205Z,759.08
2023-03-26T14:43:47.581Z,754.60
2023-03-26T14:49:29.742Z,743.80
2023-03-26T14:54:36.650Z,758.72
2023-03-26T15:00:23.613Z,745.85
2023-03-26T15:05:49.654Z,749.15
2023-03-26T15:11:20.465Z,754.47
2023-03-26T15:17:00.934Z,756.13
2023-03-26T15:22:21.609Z,752.55
2023-03-26T15:27:50.268Z,754.63
2023-03-26T15:38:38.494Z,745.25
2023-03-26T15:44:23.404Z,743.53
2023-03-26T15:49:22.912Z,749.47
2023-03-26T15:55:06.429Z,739.55
2023-03-26T16:00:22.785Z,749.63
2023-03-26T16:05:27.864Z,752.58
2023-03-26T16:10:58.302Z,743.60
2023-03-26T16:16:07.145Z,738.63
2023-03-26T16:21:31.503Z,744.05
2023-03-26T16:26:54.414Z,749.17
2023-03-26T16:32:19.106Z,742.05
2023-03-26T16:37:36.424Z,734.63
2023-03-26T16:42:41.669Z,737.72
2023-03-26T16:47:58.865Z,733.25
2023-03-26T16:53:20.265Z,735.55
2023-03-26T16:58:31.588Z,735.05
2023-03-26T17:04:00.804Z,737.38
2023-03-26T17:09:17.582Z,734.47
2023-03-26T17:14:35.282Z,733.05
2023-03-26T17:19:55.320Z,739.53
2023-03-26T17:25:04.460Z,736.20
2023-03-26T17:30:32.665Z,730.60
2023-03-26T17:35:43.956Z,740.50
2023-03-26T17:40:56.153Z,741.80
2023-03-26T17:46:03.660Z,728.03
2023-03-26T17:51:40.228Z,734.20
2023-03-26T17:56:42.522Z,731.67
2023-03-26T18:01:48.371Z,721.95
2023-03-26T18:06:53.164Z,729.85
2023-03-26T18:12:14.075Z,730.20
2023-03-26T18:17:16.469Z,732.45
2023-03-26T18:22:25.144Z,729.72
2023-03-26T18:27:35.593Z,734.78
2023-03-26T18:32:50.938Z,726.08
2023-03-26T18:37:59.018Z,730.72
2023-03-26T18:43:02.194Z,729.03
2023-03-26T18:48:10.403Z,729.90
2023-03-26T18:53:18.100Z,732.92
2023-03-26T18:58:27.599Z,727.03
2023-03-26T19:03:35.520Z,726.28
2023-03-26T19:08:39.136Z,735.47
2023-03-26T19:13:43.996Z,729.75
2023-03-26T19:18:46.367Z,732.35
2023-03-26T19:23:48.578Z,723.72
2023-03-26T19:28:53.701Z,727.67
2023-03-26T19:34:13.618Z,721.38
2023-03-26T19:39:24.268Z,717.15
2023-03-26T19:44:33.260Z,719.83
2023-03-26T19:49:52.904Z,714.10
2023-03-26T19:55:02.754Z,711.13
2023-03-26T20:00:13.388Z,722.30
2023-03-26T20:05:27.387Z,730.30
2023-03-26T20:10:29.239Z,726.92
2023-03-26T20:15:34.462Z,719.00
2023-03-26T20:20:36.704Z,728.80
2023-03-26T20:25:46.362Z,711.20
2023-03-26T20:30:49.634Z,710.50
2023-03-26T20:35:56.874Z,730.85
2023-03-26T20:40:59.638Z,709.65
2023-03-26T20:46:01.669Z,709.20
2023-03-26T20:51:04.850Z,709.10
2023-03-26T20:56:15.421Z,708.83
2023-03-26T21:01:17.652Z,707.78
2023-03-26T21:06:19.536Z,710.03
2023-03-26T21:11:53.047Z,713.35
2023-03-26T21:16:55.227Z,708.00
2023-03-26T21:22:03.039Z,708.28
2023-03-26T21:27:22.055Z,705.90
2023-03-26T21:32:24.392Z,709.85
2023-03-26T21:37:27.066Z,720.77
2023-03-26T21:42:29.486Z,713.15
2023-03-26T21:47:31.657Z,708.08
2023-03-26T21:52:33.960Z,720.15
2023-03-26T21:57:47.800Z,714.13
2023-03-26T22:03:20.676Z,722.30
2023-03-26T22:08:33.144Z,714.90
2023-03-26T22:13:38.853Z,710.97
2023-03-26T22:18:43.691Z,714.40
2023-03-26T22:23:52.747Z,729.85
2023-03-26T22:28:54.648Z,747.93
2023-03-26T22:33:57.206Z,763.10
2023-03-26T22:38:59.107Z,715.15
2023-03-26T22:44:12.894Z,740.72
2023-03-26T22:49:21.404Z,733.83
2023-03-26T22:54:23.338Z,709.47
2023-03-26T22:59:25.829Z,704.35
2023-03-26T23:04:32.360Z,708.38
2023-03-26T23:09:34.822Z,708.63
2023-03-26T23:14:36.672Z,714.33
2023-03-26T23:19:39.085Z,711.72
2023-03-26T23:24:41.409Z,707.03
2023-03-26T23:29:45.904Z,710.40
2023-03-26T23:34:52.111Z,710.65
2023-03-26T23:39:54.390Z,702.03
2023-03-26T23:44:57.326Z,708.53
2023-03-26T23:49:59.335Z,701.58
2023-03-26T23:55:01.221Z,704.47
